createdAt,value
2017-03-02T00:00:40.512Z,0
2017-03-02T00:01:41.314Z,0
2017-03-02T00:02:41.353Z,0
2017-03-02T00:03:40.614Z,0
2017-03-02T00:04:41.030Z,0
2017-03-02T00:05:40.697Z,0
2017-03-02T00:06:40.721Z,0
2017-03-02T00:07:40.775Z,0
2017-03-02T00:08:41.545Z,0
2017-03-02T00:09:40.843Z,0
2017-03-02T00:10:40.847Z,0
2017-03-02T00:11:41.643Z,0
2017-03-02T00:12:41.682Z,0
2017-03-02T00:13:41.717Z,0
2017-03-02T00:14:41.756Z,0
2017-03-02T00:15:41.780Z,0
2017-03-02T00:16:41.825Z,0
2017-03-02T00:17:41.072Z,0
2017-03-02T00:18:42.305Z,0
2017-03-02T00:19:41.527Z,0
2017-03-02T00:20:41.560Z,0
2017-03-02T00:21:42.007Z,0
2017-03-02T00:22:41.643Z,0
2017-03-02T00:23:41.658Z,0
2017-03-02T00:24:42.094Z,0
2017-03-02T00:25:42.122Z,0
2017-03-02T00:26:42.162Z,0
2017-03-02T00:27:41.421Z,0
2017-03-02T00:28:41.858Z,0
2017-03-02T00:29:41.878Z,0
2017-03-02T00:30:41.910Z,0
2017-03-02T00:31:41.948Z,0
2017-03-02T00:32:42.369Z,0
2017-03-02T00:33:42.775Z,0
2017-03-02T00:34:42.444Z,0
2017-03-02T00:35:42.070Z,0
2017-03-02T00:36:42.114Z,0
2017-03-02T00:37:41.770Z,0
2017-03-02T00:38:42.568Z,0
2017-03-02T00:39:42.598Z,0
2017-03-02T00:40:42.243Z,0
2017-03-02T00:41:42.282Z,0
2017-03-02T00:42:42.344Z,0
2017-03-02T00:43:42.737Z,0
2017-03-02T00:44:42.767Z,0
2017-03-02T00:45:42.024Z,0
2017-03-02T00:46:42.060Z,0
2017-03-02T00:47:42.115Z,0
2017-03-02T00:48:42.541Z,0
2017-03-02T00:49:42.548Z,0
2017-03-02T00:50:42.972Z,0
2017-03-02T00:51:42.626Z,0
2017-03-02T00:52:42.278Z,0
2017-03-02T00:53:42.705Z,0
2017-03-02T00:54:42.736Z,0
2017-03-02T00:55:42.775Z,0
2017-03-02T00:56:43.170Z,0
2017-03-02T00:57:42.827Z,0
2017-03-02T00:58:42.859Z,0
2017-03-02T00:59:42.894Z,0
2017-03-02T01:00:42.923Z,0
2017-03-02T01:01:42.959Z,0
2017-03-02T01:02:42.604Z,0
2017-03-02T01:03:42.650Z,0
2017-03-02T01:04:43.079Z,0
2017-03-02T01:05:43.099Z,0
2017-03-02T01:06:43.159Z,0
2017-03-02T01:07:42.784Z,0
2017-03-02T01:08:42.831Z,0
2017-03-02T01:09:42.860Z,0
2017-03-02T01:10:44.039Z,0
2017-03-02T01:11:43.697Z,0
2017-03-02T01:12:43.730Z,0
2017-03-02T01:13:43.370Z,0
2017-03-02T01:14:43.425Z,0
2017-03-02T01:15:43.443Z,0
2017-03-02T01:16:43.849Z,0
2017-03-02T01:17:43.535Z,0
2017-03-02T01:18:43.528Z,0
2017-03-02T01:19:43.572Z,0
2017-03-02T01:20:43.602Z,0
2017-03-02T01:21:43.644Z,0
2017-03-02T01:22:44.472Z,0
2017-03-02T01:23:43.724Z,0
2017-03-02T01:24:43.733Z,0
2017-03-02T01:25:44.162Z,0
2017-03-02T01:26:43.817Z,0
2017-03-02T01:27:43.457Z,0
2017-03-02T01:28:43.867Z,0
2017-03-02T01:29:43.530Z,0
2017-03-02T01:30:43.562Z,0
2017-03-02T01:31:43.621Z,0
2017-03-02T01:32:44.405Z,0
2017-03-02T01:33:44.485Z,0
2017-03-02T01:34:44.861Z,0
2017-03-02T01:35:44.520Z,0
2017-03-02T01:36:44.532Z,0
2017-03-02T01:37:44.187Z,0
2017-03-02T01:38:44.225Z,0
2017-03-02T01:39:44.248Z,0
2017-03-02T01:40:44.284Z,0
2017-03-02T01:41:44.694Z,0
2017-03-02T01:42:44.341Z,0
2017-03-02T01:43:44.761Z,0
2017-03-02T01:44:44.069Z,0
2017-03-02T01:45:44.074Z,0
2017-03-02T01:46:44.111Z,0
2017-03-02T01:47:44.948Z,0
2017-03-02T01:48:44.164Z,0
2017-03-02T01:49:44.201Z,0
2017-03-02T01:50:44.617Z,0
2017-03-02T01:51:45.035Z,0
2017-03-02T01:52:44.682Z,0
2017-03-02T01:53:45.118Z,0
2017-03-02T01:54:44.758Z,0
2017-03-02T01:55:45.555Z,0
2017-03-02T01:56:44.818Z,0
2017-03-02T01:57:44.849Z,0
2017-03-02T01:58:44.898Z,0
2017-03-02T01:59:45.338Z,0
2017-03-02T02:00:44.579Z,0
2017-03-02T02:01:45.377Z,0
2017-03-02T02:02:45.432Z,0
2017-03-02T02:03:44.689Z,0
2017-03-02T02:04:44.723Z,0
2017-03-02T02:05:45.527Z,0
2017-03-02T02:06:45.179Z,0
2017-03-02T02:07:45.204Z,0
2017-03-02T02:08:44.862Z,0
2017-03-02T02:09:45.254Z,0
2017-03-02T02:10:44.912Z,0
2017-03-02T02:11:45.727Z,0
2017-03-02T02:12:44.981Z,0
2017-03-02T02:13:45.403Z,0
2017-03-02T02:14:45.434Z,0
2017-03-02T02:15:45.459Z,0
2017-03-02T02:16:45.506Z,0
2017-03-02T02:17:45.541Z,0
2017-03-02T02:18:46.335Z,0
2017-03-02T02:19:46.381Z,0
2017-03-02T02:20:45.688Z,0
2017-03-02T02:21:46.062Z,0
2017-03-02T02:22:45.716Z,0
2017-03-02T02:23:45.732Z,0
2017-03-02T02:24:45.777Z,0
2017-03-02T02:25:45.798Z,0
2017-03-02T02:26:45.831Z,0
2017-03-02T02:27:46.253Z,0
2017-03-02T02:28:45.552Z,0
2017-03-02T02:29:45.950Z,0
2017-03-02T02:30:45.972Z,0
2017-03-02T02:31:46.397Z,0
2017-03-02T02:32:46.834Z,0
2017-03-02T02:33:46.469Z,0
2017-03-02T02:34:46.507Z,0
2017-03-02T02:35:45.765Z,0
2017-03-02T02:36:46.596Z,0
2017-03-02T02:37:46.588Z,0
2017-03-02T02:38:46.625Z,0
2017-03-02T02:39:46.673Z,0
2017-03-02T02:40:45.944Z,0
2017-03-02T02:41:46.359Z,0
2017-03-02T02:42:45.987Z,0
2017-03-02T02:43:46.028Z,0
2017-03-02T02:44:46.448Z,0
2017-03-02T02:45:46.869Z,0
2017-03-02T02:46:46.907Z,0
2017-03-02T02:47:47.312Z,0
2017-03-02T02:48:46.982Z,0
2017-03-02T02:49:47.025Z,0
2017-03-02T02:50:46.657Z,0
2017-03-02T02:51:46.720Z,0
2017-03-02T02:52:46.343Z,0
2017-03-02T02:53:46.750Z,0
2017-03-02T02:54:46.776Z,0
2017-03-02T02:55:46.809Z,0
2017-03-02T02:56:46.863Z,0
2017-03-02T02:57:46.504Z,0
2017-03-02T02:58:47.695Z,0
2017-03-02T02:59:46.952Z,0
2017-03-02T03:00:47.759Z,0
2017-03-02T03:01:47.404Z,0
2017-03-02T03:02:47.061Z,0
2017-03-02T03:03:47.092Z,0
2017-03-02T03:04:47.135Z,0
2017-03-02T03:05:46.787Z,0
2017-03-02T03:06:47.185Z,0
2017-03-02T03:07:47.249Z,0
2017-03-02T03:08:47.642Z,0
2017-03-02T03:09:47.311Z,0
2017-03-02T03:10:47.727Z,0
2017-03-02T03:11:47.751Z,0
2017-03-02T03:12:48.177Z,0
2017-03-02T03:13:47.452Z,0
2017-03-02T03:14:47.490Z,0
2017-03-02T03:15:47.123Z,0
2017-03-02T03:16:47.525Z,0
2017-03-02T03:17:47.582Z,0
2017-03-02T03:18:47.980Z,0
2017-03-02T03:19:47.665Z,0
2017-03-02T03:20:47.684Z,0
2017-03-02T03:21:48.130Z,0
2017-03-02T03:22:47.734Z,0
2017-03-02T03:23:47.393Z,0
2017-03-02T03:24:48.590Z,0
2017-03-02T03:25:47.463Z,0
2017-03-02T03:26:47.881Z,0
2017-03-02T03:27:47.905Z,0
2017-03-02T03:28:47.557Z,0
2017-03-02T03:29:48.367Z,0
2017-03-02T03:30:47.651Z,0
2017-03-02T03:31:48.057Z,0
2017-03-02T03:32:47.694Z,0
2017-03-02T03:33:48.106Z,0
2017-03-02T03:34:48.911Z,0
2017-03-02T03:35:48.195Z,0
2017-03-02T03:36:48.230Z,0
2017-03-02T03:37:48.634Z,0
2017-03-02T03:38:47.903Z,0
2017-03-02T03:39:48.310Z,0
2017-03-02T03:40:49.123Z,0
2017-03-02T03:41:48.810Z,0
2017-03-02T03:42:48.425Z,0
2017-03-02T03:43:48.097Z,0
2017-03-02T03:44:48.888Z,0
2017-03-02T03:45:49.305Z,0
2017-03-02T03:46:48.937Z,0
2017-03-02T03:47:48.602Z,0
2017-03-02T03:48:48.636Z,0
2017-03-02T03:49:48.283Z,0
2017-03-02T03:50:48.311Z,0
2017-03-02T03:51:48.721Z,0
2017-03-02T03:52:48.810Z,0
2017-03-02T03:53:48.790Z,0
2017-03-02T03:54:48.840Z,0
2017-03-02T03:55:48.484Z,0
2017-03-02T03:56:48.904Z,0
2017-03-02T03:57:49.332Z,0
2017-03-02T03:58:48.978Z,0
2017-03-02T03:59:49.009Z,0
2017-03-02T04:00:49.418Z,0
2017-03-02T04:01:48.701Z,0
2017-03-02T04:02:49.097Z,0
2017-03-02T04:03:49.162Z,0
2017-03-02T04:04:48.790Z,0
2017-03-02T04:05:49.980Z,0
2017-03-02T04:06:49.243Z,0
2017-03-02T04:07:49.265Z,0
2017-03-02T04:08:49.706Z,0
2017-03-02T04:09:48.949Z,0
2017-03-02T04:10:48.996Z,0
2017-03-02T04:11:49.022Z,0
2017-03-02T04:12:49.468Z,0
2017-03-02T04:13:49.484Z,0
2017-03-02T04:14:49.121Z,0
2017-03-02T04:15:50.325Z,0
2017-03-02T04:16:49.202Z,0
2017-03-02T04:17:50.420Z,0
2017-03-02T04:18:50.429Z,0
2017-03-02T04:19:49.715Z,0
2017-03-02T04:20:50.487Z,0
2017-03-02T04:21:50.145Z,0
2017-03-02T04:22:50.560Z,0
2017-03-02T04:23:49.449Z,0
2017-03-02T04:24:50.626Z,0
2017-03-02T04:25:50.275Z,0
2017-03-02T04:26:49.924Z,0
2017-03-02T04:27:49.565Z,0
2017-03-02T04:28:49.605Z,0
2017-03-02T04:29:49.665Z,0
2017-03-02T04:30:50.070Z,0
2017-03-02T04:31:50.095Z,0
2017-03-02T04:32:49.763Z,0
2017-03-02T04:33:50.160Z,0
2017-03-02T04:34:50.424Z,0
2017-03-02T04:35:50.236Z,0
2017-03-02T04:36:50.655Z,0
2017-03-02T04:37:50.317Z,0
2017-03-02T04:38:50.345Z,0
2017-03-02T04:39:49.987Z,0
2017-03-02T04:40:51.007Z,0
2017-03-02T04:41:50.442Z,0
2017-03-02T04:42:50.114Z,0
2017-03-02T04:43:50.552Z,0
2017-03-02T04:44:50.178Z,0
2017-03-02T04:45:50.586Z,0
2017-03-02T04:46:50.225Z,0
2017-03-02T04:47:50.714Z,0
2017-03-02T04:48:51.070Z,0
2017-03-02T04:49:50.732Z,0
2017-03-02T04:50:51.517Z,0
2017-03-02T04:51:51.559Z,0
2017-03-02T04:52:50.817Z,0
2017-03-02T04:53:50.851Z,0
2017-03-02T04:54:50.505Z,0
2017-03-02T04:55:51.318Z,0
2017-03-02T04:56:51.344Z,0
2017-03-02T04:57:51.596Z,0
2017-03-02T04:58:51.411Z,0
2017-03-02T04:59:51.068Z,0
2017-03-02T05:00:51.111Z,0
2017-03-02T05:01:50.741Z,0
2017-03-02T05:02:51.596Z,0
2017-03-02T05:03:51.213Z,0
2017-03-02T05:04:50.848Z,0
2017-03-02T05:05:50.897Z,0
2017-03-02T05:06:51.694Z,0
2017-03-02T05:07:51.336Z,0
2017-03-02T05:08:51.407Z,0
2017-03-02T05:09:51.795Z,0
2017-03-02T05:10:51.445Z,0
2017-03-02T05:11:51.110Z,0
2017-03-02T05:12:51.131Z,0
2017-03-02T05:13:51.556Z,0
2017-03-02T05:14:51.201Z,0
2017-03-02T05:15:51.638Z,0
2017-03-02T05:16:51.647Z,4
2017-03-02T05:17:52.090Z,4
2017-03-02T05:18:52.120Z,0
2017-03-02T05:19:51.373Z,4
2017-03-02T05:20:51.402Z,4
2017-03-02T05:21:52.221Z,4
2017-03-02T05:22:52.244Z,8
2017-03-02T05:23:51.905Z,8
2017-03-02T05:24:51.929Z,8
2017-03-02T05:25:51.987Z,8
2017-03-02T05:26:52.030Z,12
2017-03-02T05:27:52.030Z,12
2017-03-02T05:28:52.443Z,16
2017-03-02T05:29:52.099Z,20
2017-03-02T05:30:51.747Z,24
2017-03-02T05:31:52.175Z,32
2017-03-02T05:32:52.589Z,32
2017-03-02T05:33:52.248Z,40
2017-03-02T05:34:51.887Z,48
2017-03-02T05:35:52.721Z,56
2017-03-02T05:36:52.337Z,64
2017-03-02T05:37:52.387Z,72
2017-03-02T05:38:52.803Z,84
2017-03-02T05:39:52.820Z,96
2017-03-02T05:40:52.872Z,108
2017-03-02T05:41:52.528Z,120
2017-03-02T05:42:52.168Z,136
2017-03-02T05:43:53.345Z,156
2017-03-02T05:44:52.610Z,172
2017-03-02T05:45:53.037Z,196
2017-03-02T05:46:52.679Z,220
2017-03-02T05:47:52.338Z,240
2017-03-02T05:48:53.136Z,268
2017-03-02T05:49:53.172Z,296
2017-03-02T05:50:52.818Z,324
2017-03-02T05:51:53.269Z,352
2017-03-02T05:52:52.897Z,384
2017-03-02T05:53:53.697Z,416
2017-03-02T05:54:52.954Z,448
2017-03-02T05:55:52.997Z,484
2017-03-02T05:56:53.036Z,516
2017-03-02T05:57:53.063Z,556
2017-03-02T05:58:53.113Z,584
2017-03-02T05:59:53.515Z,620
2017-03-02T06:00:53.945Z,656
2017-03-02T06:01:52.834Z,688
2017-03-02T06:02:53.235Z,724
2017-03-02T06:03:53.656Z,764
2017-03-02T06:04:54.082Z,804
2017-03-02T06:05:53.349Z,848
2017-03-02T06:06:54.148Z,884
2017-03-02T06:07:53.044Z,920
2017-03-02T06:08:53.455Z,964
2017-03-02T06:09:53.492Z,1000
2017-03-02T06:10:53.515Z,1040
2017-03-02T06:11:53.552Z,1080
2017-03-02T06:12:53.589Z,1136
2017-03-02T06:13:53.717Z,1164
2017-03-02T06:14:54.039Z,1188
2017-03-02T06:15:53.704Z,1224
2017-03-02T06:16:54.146Z,1244
2017-03-02T06:17:53.768Z,1284
2017-03-02T06:18:54.176Z,1328
2017-03-02T06:19:53.837Z,1384
2017-03-02T06:20:53.860Z,1432
2017-03-02T06:21:53.906Z,1476
2017-03-02T06:22:54.317Z,1532
2017-03-02T06:23:53.971Z,1580
2017-03-02T06:24:54.000Z,1644
2017-03-02T06:25:53.650Z,1704
2017-03-02T06:26:54.458Z,1748
2017-03-02T06:27:54.881Z,1788
2017-03-02T06:28:54.139Z,1844
2017-03-02T06:29:54.185Z,1968
2017-03-02T06:30:54.606Z,2124
2017-03-02T06:31:54.248Z,2220
2017-03-02T06:32:53.904Z,2316
2017-03-02T06:33:54.343Z,2428
2017-03-02T06:34:53.974Z,2496
2017-03-02T06:35:54.768Z,2596
2017-03-02T06:36:54.195Z,2628
2017-03-02T06:37:54.066Z,2620
2017-03-02T06:38:55.300Z,2640
2017-03-02T06:39:54.516Z,2708
2017-03-02T06:40:54.948Z,2864
2017-03-02T06:41:54.224Z,3080
2017-03-02T06:42:55.029Z,3272
2017-03-02T06:43:54.673Z,3388
2017-03-02T06:44:54.704Z,3456
2017-03-02T06:45:54.724Z,3404
2017-03-02T06:46:54.760Z,3260
2017-03-02T06:47:55.181Z,3184
2017-03-02T06:48:54.844Z,3084
2017-03-02T06:49:55.255Z,3068
2017-03-02T06:50:55.300Z,3136
2017-03-02T06:51:54.568Z,3340
2017-03-02T06:52:54.592Z,3668
2017-03-02T06:53:55.398Z,3900
2017-03-02T06:54:55.056Z,3832
2017-03-02T06:55:54.700Z,3720
2017-03-02T06:56:54.757Z,3632
2017-03-02T06:57:54.777Z,3376
2017-03-02T06:58:54.817Z,3352
2017-03-02T06:59:55.244Z,3080
2017-03-02T07:00:55.645Z,3204
2017-03-02T07:01:55.707Z,3420
2017-03-02T07:02:55.361Z,3824
2017-03-02T07:03:54.982Z,4836
2017-03-02T07:04:55.806Z,5348
2017-03-02T07:05:55.837Z,4940
2017-03-02T07:06:56.261Z,3192
2017-03-02T07:07:55.516Z,2960
2017-03-02T07:08:56.333Z,2684
2017-03-02T07:09:56.002Z,2688
2017-03-02T07:10:56.028Z,3008
2017-03-02T07:11:56.041Z,3768
2017-03-02T07:12:56.746Z,5412
2017-03-02T07:13:55.730Z,6492
2017-03-02T07:14:55.766Z,6772
2017-03-02T07:15:55.821Z,7036
2017-03-02T07:16:56.230Z,6848
2017-03-02T07:17:55.489Z,6472
2017-03-02T07:18:55.911Z,6464
2017-03-02T07:19:56.328Z,14176
2017-03-02T07:20:55.982Z,11016
2017-03-02T07:21:55.654Z,6904
2017-03-02T07:22:55.687Z,7332
2017-03-02T07:23:56.083Z,7248
2017-03-02T07:24:56.167Z,7328
2017-03-02T07:25:56.167Z,8164
2017-03-02T07:26:56.217Z,7900
2017-03-02T07:27:56.257Z,6380
2017-03-02T07:28:56.282Z,5396
2017-03-02T07:29:56.305Z,4704
2017-03-02T07:30:56.777Z,5204
2017-03-02T07:31:56.776Z,6224
2017-03-02T07:32:56.806Z,6848
2017-03-02T07:33:57.224Z,7072
2017-03-02T07:34:56.502Z,7080
2017-03-02T07:35:56.712Z,8044
2017-03-02T07:36:56.182Z,7960
2017-03-02T07:37:56.987Z,8996
2017-03-02T07:38:57.159Z,6832
2017-03-02T07:39:57.082Z,6392
2017-03-02T07:40:56.738Z,6548
2017-03-02T07:41:57.142Z,3912
2017-03-02T07:42:56.414Z,2468
2017-03-02T07:43:56.845Z,1396
2017-03-02T07:44:56.863Z,720
2017-03-02T07:45:56.929Z,528
2017-03-02T07:46:56.546Z,728
2017-03-02T07:47:56.985Z,1200
2017-03-02T07:48:57.004Z,1952
2017-03-02T07:49:56.655Z,2912
2017-03-02T07:50:57.464Z,3836
2017-03-02T07:51:56.741Z,4756
2017-03-02T07:52:57.534Z,5316
2017-03-02T07:53:57.628Z,5640
2017-03-02T07:54:58.011Z,5388
2017-03-02T07:55:57.280Z,5920
2017-03-02T07:56:56.910Z,6272
2017-03-02T07:57:57.338Z,5604
2017-03-02T07:58:56.992Z,4596
2017-03-02T07:59:57.795Z,4496
2017-03-02T08:00:57.432Z,4740
2017-03-02T08:01:57.104Z,5192
2017-03-02T08:02:57.510Z,6012
2017-03-02T08:03:58.311Z,6508
2017-03-02T08:04:57.988Z,6636
2017-03-02T08:05:57.625Z,7080
2017-03-02T08:06:57.271Z,6564
2017-03-02T08:07:57.694Z,5876
2017-03-02T08:08:57.742Z,5984
2017-03-02T08:09:57.374Z,6756
2017-03-02T08:10:57.808Z,7164
2017-03-02T08:11:58.220Z,7208
2017-03-02T08:12:58.249Z,8748
2017-03-02T08:13:57.514Z,9012
2017-03-02T08:14:58.330Z,9924
2017-03-02T08:15:57.988Z,9372
2017-03-02T08:16:58.386Z,9296
2017-03-02T08:17:57.690Z,9280
2017-03-02T08:18:57.702Z,8864
2017-03-02T08:19:57.734Z,8064
2017-03-02T08:20:58.159Z,9324
2017-03-02T08:21:58.204Z,11732
2017-03-02T08:22:58.279Z,7560
2017-03-02T08:23:57.883Z,36960
2017-03-02T08:24:57.921Z,36256
2017-03-02T08:25:58.730Z,36480
2017-03-02T08:26:58.771Z,37216
2017-03-02T08:27:58.415Z,36480
2017-03-02T08:28:58.462Z,33792
2017-03-02T08:29:58.515Z,31968
2017-03-02T08:30:58.531Z,32672
2017-03-02T08:31:58.586Z,37184
2017-03-02T08:32:58.227Z,29344
2017-03-02T08:33:59.046Z,14096
2017-03-02T08:34:58.808Z,9748
2017-03-02T08:35:59.127Z,7532
2017-03-02T08:36:58.384Z,5828
2017-03-02T08:37:58.797Z,4044
2017-03-02T08:38:58.845Z,3960
2017-03-02T08:39:58.903Z,3728
2017-03-02T08:40:58.560Z,4048
2017-03-02T08:41:59.347Z,5824
2017-03-02T08:42:59.014Z,8644
2017-03-02T08:43:59.442Z,12252
2017-03-02T08:44:59.463Z,12096
2017-03-02T08:45:58.731Z,7396
2017-03-02T08:46:59.167Z,5208
2017-03-02T08:47:59.595Z,4916
2017-03-02T08:48:59.255Z,5808
2017-03-02T08:49:58.897Z,6632
2017-03-02T08:50:58.933Z,7296
2017-03-02T08:51:58.977Z,6260
2017-03-02T08:53:00.211Z,4196
2017-03-02T08:53:59.433Z,3436
2017-03-02T08:54:59.846Z,3128
2017-03-02T08:55:59.512Z,2004
2017-03-02T08:56:59.538Z,1400
2017-03-02T08:57:59.584Z,1080
2017-03-02T08:58:59.239Z,996
2017-03-02T09:00:00.062Z,872
2017-03-02T09:01:00.098Z,1108
2017-03-02T09:02:00.134Z,1584
2017-03-02T09:03:06.107Z,3104
2017-03-02T09:03:59.798Z,3572
2017-03-02T09:05:00.253Z,5976
2017-03-02T09:05:59.897Z,8828
2017-03-02T09:06:59.960Z,8672
2017-03-02T09:07:59.577Z,10388
2017-03-02T09:08:59.982Z,16296
2017-03-02T09:10:00.793Z,13412
2017-03-02T09:10:59.682Z,10772
2017-03-02T09:12:00.538Z,6964
2017-03-02T09:13:00.516Z,4328
2017-03-02T09:14:00.193Z,3424
2017-03-02T09:15:00.646Z,2624
2017-03-02T09:16:00.274Z,2732
2017-03-02T09:16:59.890Z,3812
2017-03-02T09:18:00.326Z,5072
2017-03-02T09:19:00.359Z,13932
2017-03-02T09:20:00.023Z,56704
2017-03-02T09:21:00.425Z,59456
2017-03-02T09:22:00.842Z,58784
2017-03-02T09:23:00.511Z,53184
2017-03-02T09:24:00.169Z,47744
2017-03-02T09:25:00.587Z,43104
2017-03-02T09:26:00.239Z,41024
2017-03-02T09:27:00.287Z,42048
2017-03-02T09:28:00.703Z,44128
2017-03-02T09:29:00.745Z,46400
2017-03-02T09:30:00.774Z,48000
2017-03-02T09:31:00.424Z,49920
2017-03-02T09:32:01.244Z,52512
2017-03-02T09:33:00.524Z,52800
2017-03-02T09:34:00.575Z,51008
2017-03-02T09:35:00.995Z,46592
2017-03-02T09:36:01.418Z,43232
2017-03-02T09:37:01.099Z,42144
2017-03-02T09:38:00.741Z,43360
2017-03-02T09:39:01.590Z,19008
2017-03-02T09:40:01.595Z,45504
2017-03-02T09:41:02.269Z,45312
2017-03-02T09:42:01.698Z,42912
2017-03-02T09:43:01.722Z,42880
2017-03-02T09:44:01.013Z,41728
2017-03-02T09:45:01.443Z,42400
2017-03-02T09:46:01.494Z,36288
2017-03-02T09:47:02.287Z,47072
2017-03-02T09:48:01.573Z,46752
2017-03-02T09:49:01.640Z,42560
2017-03-02T09:50:01.280Z,42752
2017-03-02T09:51:02.081Z,48640
2017-03-02T09:52:02.134Z,25568
2017-03-02T09:53:01.791Z,54688
2017-03-02T09:54:02.223Z,58400
2017-03-02T09:55:01.507Z,56736
2017-03-02T09:56:02.323Z,52256
2017-03-02T09:57:01.991Z,48896
2017-03-02T09:58:02.415Z,50336
2017-03-02T09:59:02.125Z,54144
2017-03-02T10:00:02.524Z,60736
2017-03-02T10:01:02.161Z,15620
2017-03-02T10:02:02.602Z,60064
2017-03-02T10:03:02.260Z,56576
2017-03-02T10:04:02.696Z,58816
2017-03-02T10:05:02.353Z,12188
2017-03-02T10:06:02.395Z,55936
2017-03-02T10:07:02.448Z,51680
2017-03-02T10:08:02.110Z,49536
2017-03-02T10:09:02.928Z,49280
2017-03-02T10:10:02.577Z,50752
2017-03-02T10:11:03.403Z,58016
2017-03-02T10:12:02.682Z,58912
2017-03-02T10:13:03.111Z,33536
2017-03-02T10:14:02.393Z,34304
2017-03-02T10:15:03.207Z,45888
2017-03-02T10:16:02.472Z,41152
2017-03-02T10:17:03.298Z,40704
2017-03-02T10:18:03.339Z,45440
2017-03-02T10:19:03.372Z,49696
2017-03-02T10:20:02.663Z,52832
2017-03-02T10:21:03.083Z,51488
2017-03-02T10:22:02.760Z,5840
2017-03-02T10:23:03.576Z,18432
2017-03-02T10:24:03.609Z,11832
2017-03-02T10:25:04.057Z,41536
2017-03-02T10:26:03.350Z,12180
2017-03-02T10:27:02.967Z,36448
2017-03-02T10:28:03.792Z,46816
2017-03-02T10:29:04.231Z,42752
2017-03-02T10:30:03.948Z,39360
2017-03-02T10:31:03.538Z,39008
2017-03-02T10:32:03.203Z,40320
2017-03-02T10:33:03.624Z,33440
2017-03-02T10:34:04.454Z,43456
2017-03-02T10:35:04.107Z,46336
2017-03-02T10:36:03.793Z,25312
2017-03-02T10:37:04.224Z,44928
2017-03-02T10:38:04.244Z,36160
2017-03-02T10:39:03.914Z,16704
2017-03-02T10:40:03.570Z,39104
2017-03-02T10:41:04.394Z,48224
2017-03-02T10:42:04.445Z,10672
2017-03-02T10:43:04.077Z,9312
2017-03-02T10:44:04.521Z,8052
2017-03-02T10:45:04.563Z,9216
2017-03-02T10:46:04.214Z,12456
2017-03-02T10:47:04.652Z,10428
2017-03-02T10:48:04.007Z,12076
2017-03-02T10:49:03.966Z,12840
2017-03-02T10:50:05.172Z,10276
2017-03-02T10:51:04.834Z,10928
2017-03-02T10:52:04.573Z,7828
2017-03-02T10:53:04.553Z,8076
2017-03-02T10:54:04.559Z,7544
2017-03-02T10:55:04.223Z,8972
2017-03-02T10:56:04.911Z,9516
2017-03-02T10:57:05.574Z,7988
2017-03-02T10:58:04.752Z,10020
2017-03-02T10:59:05.152Z,28960
2017-03-02T11:00:04.861Z,48160
2017-03-02T11:01:05.638Z,34432
2017-03-02T11:02:04.505Z,25664
2017-03-02T11:03:04.643Z,9672
2017-03-02T11:04:04.994Z,7568
2017-03-02T11:05:05.001Z,7440
2017-03-02T11:06:05.810Z,6540
2017-03-02T11:07:05.085Z,4572
2017-03-02T11:08:05.520Z,3120
2017-03-02T11:09:04.783Z,2336
2017-03-02T11:10:05.576Z,1544
2017-03-02T11:11:05.246Z,1056
2017-03-02T11:12:05.327Z,1324
2017-03-02T11:13:04.953Z,3372
2017-03-02T11:14:05.347Z,5736
2017-03-02T11:15:05.390Z,5928
2017-03-02T11:16:05.427Z,6260
2017-03-02T11:17:05.490Z,44768
2017-03-02T11:18:06.275Z,50976
2017-03-02T11:19:05.543Z,53920
2017-03-02T11:20:05.591Z,52576
2017-03-02T11:21:06.025Z,48512
2017-03-02T11:22:05.661Z,44832
2017-03-02T11:23:05.350Z,43040
2017-03-02T11:24:05.751Z,45056
2017-03-02T11:25:06.186Z,49408
2017-03-02T11:26:06.234Z,51136
2017-03-02T11:27:06.270Z,47840
2017-03-02T11:28:05.510Z,43296
2017-03-02T11:29:05.562Z,39424
2017-03-02T11:30:06.372Z,38592
2017-03-02T11:31:06.948Z,42400
2017-03-02T11:32:06.078Z,46080
2017-03-02T11:33:06.511Z,45632
2017-03-02T11:34:05.772Z,43264
2017-03-02T11:35:06.201Z,41056
2017-03-02T11:36:06.635Z,40768
2017-03-02T11:37:05.889Z,44992
2017-03-02T11:38:06.313Z,51904
2017-03-02T11:39:06.353Z,56320
2017-03-02T11:40:06.790Z,57792
2017-03-02T11:41:06.824Z,56352
2017-03-02T11:42:06.485Z,53152
2017-03-02T11:43:06.521Z,50208
2017-03-02T11:44:06.955Z,50464
2017-03-02T11:45:06.608Z,51520
2017-03-02T11:46:06.265Z,10392
2017-03-02T11:47:06.701Z,52480
2017-03-02T11:48:06.729Z,31104
2017-03-02T11:49:06.766Z,35104
2017-03-02T11:50:06.438Z,22496
2017-03-02T11:51:06.473Z,13692
2017-03-02T11:52:06.886Z,12932
2017-03-02T11:53:07.342Z,11064
2017-03-02T11:54:07.392Z,11332
2017-03-02T11:55:07.020Z,10692
2017-03-02T11:56:07.038Z,9744
2017-03-02T11:57:07.485Z,9564
2017-03-02T11:58:07.125Z,9536
2017-03-02T11:59:07.168Z,9728
2017-03-02T12:00:07.221Z,11176
2017-03-02T12:01:07.261Z,10944
2017-03-02T12:02:06.900Z,10644
2017-03-02T12:03:07.345Z,12880
2017-03-02T12:04:07.744Z,13756
2017-03-02T12:05:07.432Z,13608
2017-03-02T12:06:07.840Z,12664
2017-03-02T12:07:07.484Z,11052
2017-03-02T12:08:07.915Z,11936
2017-03-02T12:09:07.959Z,11768
2017-03-02T12:10:07.236Z,11852
2017-03-02T12:11:08.030Z,11752
2017-03-02T12:12:08.341Z,11268
2017-03-02T12:13:08.124Z,10136
2017-03-02T12:14:07.754Z,9276
2017-03-02T12:15:07.797Z,7928
2017-03-02T12:16:07.856Z,7428
2017-03-02T12:17:07.909Z,7092
2017-03-02T12:18:07.918Z,6956
2017-03-02T12:19:07.612Z,5572
2017-03-02T12:20:08.003Z,5668
2017-03-02T12:21:08.054Z,6240
2017-03-02T12:22:08.485Z,6600
2017-03-02T12:23:08.110Z,6992
2017-03-02T12:24:08.541Z,6884
2017-03-02T12:25:08.575Z,5836
2017-03-02T12:26:08.294Z,5620
2017-03-02T12:27:08.267Z,5312
2017-03-02T12:28:08.304Z,4960
2017-03-02T12:29:08.364Z,4668
2017-03-02T12:30:08.391Z,4580
2017-03-02T12:31:08.423Z,4328
2017-03-02T12:32:08.471Z,4456
2017-03-02T12:33:08.146Z,4500
2017-03-02T12:34:08.144Z,4436
2017-03-02T12:35:08.420Z,4692
2017-03-02T12:36:08.613Z,4944
2017-03-02T12:37:09.026Z,5216
2017-03-02T12:38:09.083Z,5492
2017-03-02T12:39:09.234Z,5420
2017-03-02T12:40:08.762Z,5232
2017-03-02T12:41:08.798Z,5200
2017-03-02T12:42:08.849Z,4780
2017-03-02T12:43:09.266Z,4440
2017-03-02T12:44:08.902Z,4184
2017-03-02T12:45:08.941Z,4040
2017-03-02T12:46:08.595Z,4168
2017-03-02T12:47:09.185Z,3992
2017-03-02T12:48:09.091Z,4000
2017-03-02T12:49:08.714Z,4224
2017-03-02T12:50:09.144Z,4428
2017-03-02T12:51:09.191Z,4188
2017-03-02T12:52:09.213Z,3736
2017-03-02T12:53:09.630Z,3864
2017-03-02T12:54:09.270Z,3908
2017-03-02T12:55:09.712Z,3536
2017-03-02T12:56:10.119Z,3848
2017-03-02T12:57:09.404Z,3640
2017-03-02T12:58:09.440Z,3352
2017-03-02T12:59:09.464Z,3056
2017-03-02T13:00:09.513Z,3132
2017-03-02T13:01:09.937Z,2956
2017-03-02T13:02:09.968Z,3216
2017-03-02T13:03:10.002Z,3436
2017-03-02T13:04:10.053Z,3320
2017-03-02T13:05:10.089Z,3208
2017-03-02T13:06:09.727Z,3292
2017-03-02T13:07:09.377Z,3456
2017-03-02T13:08:09.435Z,3588
2017-03-02T13:09:10.604Z,3376
2017-03-02T13:10:09.509Z,3164
2017-03-02T13:11:09.515Z,3220
2017-03-02T13:12:09.945Z,3212
2017-03-02T13:13:10.368Z,3248
2017-03-02T13:14:10.409Z,3012
2017-03-02T13:15:09.672Z,3100
2017-03-02T13:16:10.120Z,3120
2017-03-02T13:17:09.739Z,3356
2017-03-02T13:18:10.564Z,3804
2017-03-02T13:19:10.201Z,4368
2017-03-02T13:20:09.857Z,4508
2017-03-02T13:21:10.282Z,4104
2017-03-02T13:22:10.403Z,3580
2017-03-02T13:23:10.138Z,3664
2017-03-02T13:24:11.147Z,3844
2017-03-02T13:25:10.852Z,3968
2017-03-02T13:26:10.844Z,3812
2017-03-02T13:27:10.615Z,3680
2017-03-02T13:28:10.569Z,4068
2017-03-02T13:29:10.978Z,4196
2017-03-02T13:30:10.662Z,4564
2017-03-02T13:31:10.651Z,4784
2017-03-02T13:32:10.302Z,4988
2017-03-02T13:33:10.331Z,4968
2017-03-02T13:34:10.370Z,5688
2017-03-02T13:35:11.161Z,6456
2017-03-02T13:36:11.652Z,4996
2017-03-02T13:37:10.872Z,4204
2017-03-02T13:38:10.909Z,3484
2017-03-02T13:39:10.922Z,3380
2017-03-02T13:40:10.958Z,3608
2017-03-02T13:41:11.013Z,3692
2017-03-02T13:42:11.422Z,3636
2017-03-02T13:43:11.466Z,3588
2017-03-02T13:44:10.734Z,3308
2017-03-02T13:45:11.549Z,3072
2017-03-02T13:46:11.727Z,2592
2017-03-02T13:47:11.246Z,2168
2017-03-02T13:48:11.703Z,1856